スィクティフカル の空港の天気 - METARとTAF

Syktyvkar ( UUYY / SCW ) - ロシア スィクティフカル
飛行場実況気象(Metar)
観測時間04/25 10:30 MSK (04/25 07:30 UTC)
風向・風速北 3m/s
視程10km以上
天気現象
全天の4割程度の雲 雲底高度 790m
気温6℃
湿度61%
気圧1021hPa
METARUUYY 250730Z 36003MPS 320V040 9999 SCT026 06/M01 Q1021 R36/61D NOSIG RMK QFE756/1009
過去の天気等 Google飛行場航空写真 Wunderground天気予報

過去48時間のMETAR

飛行場予報(TAF)
発表時間: 4/25 08:00 MSK (4/25 05:00 UTC)
予報対象時間: 25日9時 MSK ~ 26日9時 MSK
風向・風速北 3m/s 瞬間風速 8m/s
視程10km以上
全天の8割程度の雲 雲底高度 340m
全天の8割程度の積乱雲 雲底高度 460m
25日9時 MSK ~ 25日18時 MSK に一時的に
風向・風速北北東 5m/s 瞬間風速 11m/s
視程4000m
天気現象弱いしゅう雨
全天の8割程度の積乱雲 雲底高度 370m
25日21時 MSK ~ 26日6時 MSK に一時的に
視程3100m
天気現象もや
少しの雲 雲底高度 210m
TAF UUYY 250500Z 2506/2606 36003G08MPS 9999 BKN011 BKN015CB
TEMPO 2506/2515 02005G11MPS 4000 -SHRA BKN012CB
TEMPO 2518/2603 3100 BR FEW007